createdAt,value
2018-12-10T00:00:38.036Z,4.47
2018-12-10T00:03:12.004Z,5.37
2018-12-10T00:05:40.940Z,3.73
2018-12-10T00:08:09.614Z,5.00
2018-12-10T00:10:41.733Z,4.90
2018-12-10T00:13:09.145Z,4.63
2018-12-10T00:15:37.964Z,5.37
2018-12-10T00:18:06.582Z,5.20
2018-12-10T00:20:35.301Z,6.30
2018-12-10T00:23:04.098Z,5.67
2018-12-10T00:25:33.230Z,5.97
2018-12-10T00:28:02.354Z,5.57
2018-12-10T00:30:31.563Z,5.83
2018-12-10T00:33:00.207Z,5.70
2018-12-10T00:35:28.968Z,5.67
2018-12-10T00:37:57.598Z,3.90
2018-12-10T00:40:26.233Z,4.53
2018-12-10T00:42:55.178Z,5.20
2018-12-10T00:45:24.219Z,5.90
2018-12-10T00:47:52.988Z,5.10
2018-12-10T00:50:21.689Z,5.07
2018-12-10T00:52:50.477Z,4.13
2018-12-10T00:55:19.253Z,4.27
2018-12-10T00:57:48.253Z,3.87
2018-12-10T01:00:17.068Z,4.57
2018-12-10T01:02:46.118Z,5.07
2018-12-10T01:05:15.230Z,5.00
2018-12-10T01:07:44.157Z,5.10
2018-12-10T01:10:12.891Z,6.53
2018-12-10T01:12:41.678Z,5.67
2018-12-10T01:15:10.631Z,6.13
2018-12-10T01:17:39.637Z,5.17
2018-12-10T01:20:08.574Z,4.73
2018-12-10T01:22:37.615Z,4.90
2018-12-10T01:25:06.615Z,5.67
2018-12-10T01:27:35.371Z,4.70
2018-12-10T01:30:04.200Z,4.33
2018-12-10T01:32:33.009Z,6.77
2018-12-10T01:35:01.973Z,5.73
2018-12-10T01:37:31.028Z,4.93
2018-12-10T01:39:59.995Z,5.80
2018-12-10T01:42:28.950Z,5.30
2018-12-10T01:44:57.960Z,5.20
2018-12-10T01:47:26.614Z,5.33
2018-12-10T01:49:55.436Z,6.13
2018-12-10T01:52:24.072Z,5.20
2018-12-10T01:54:52.760Z,5.67
2018-12-10T01:57:21.400Z,5.97
2018-12-10T01:59:50.145Z,5.23
2018-12-10T02:02:18.800Z,4.30
2018-12-10T02:04:47.413Z,4.10
2018-12-10T02:07:16.116Z,3.47
2018-12-10T02:09:44.821Z,5.73
2018-12-10T02:12:13.412Z,3.70
2018-12-10T02:14:42.224Z,6.53
2018-12-10T02:17:10.893Z,5.13
2018-12-10T02:19:41.403Z,4.47
2018-12-10T02:22:10.294Z,5.57
2018-12-10T02:24:39.074Z,9.73
2018-12-10T02:27:07.863Z,5.40
2018-12-10T02:29:36.574Z,6.57
2018-12-10T02:32:05.776Z,6.43
2018-12-10T02:34:34.382Z,5.60
2018-12-10T02:37:03.159Z,5.87
2018-12-10T02:39:31.896Z,6.30
2018-12-10T02:42:00.560Z,6.50
2018-12-10T02:44:29.354Z,6.47
2018-12-10T02:46:57.960Z,7.37
2018-12-10T02:49:26.691Z,8.30
2018-12-10T02:51:55.330Z,5.90
2018-12-10T02:54:24.073Z,6.87
2018-12-10T02:56:52.860Z,7.47
2018-12-10T02:59:21.659Z,7.03
2018-12-10T03:01:50.388Z,6.73
2018-12-10T03:04:19.120Z,5.47
2018-12-10T03:06:47.889Z,6.87
2018-12-10T03:09:16.921Z,11.43
2018-12-10T03:11:45.712Z,5.87
2018-12-10T03:14:14.798Z,5.20
2018-12-10T03:16:44.542Z,5.40
2018-12-10T03:19:13.632Z,6.33
2018-12-10T03:21:42.812Z,8.03
2018-12-10T03:24:11.672Z,8.37
2018-12-10T03:26:40.610Z,7.23
2018-12-10T03:29:09.240Z,8.17
2018-12-10T03:31:38.009Z,8.33
2018-12-10T03:34:06.689Z,8.37
2018-12-10T03:36:36.514Z,7.80
2018-12-10T03:39:06.634Z,9.67
2018-12-10T03:41:35.522Z,8.20
2018-12-10T03:44:04.624Z,9.83
2018-12-10T03:46:33.625Z,9.27
2018-12-10T03:49:02.669Z,7.83
2018-12-10T03:51:31.847Z,8.33
2018-12-10T03:54:00.778Z,11.70
2018-12-10T03:56:29.456Z,10.27
2018-12-10T03:58:58.376Z,8.70
2018-12-10T04:01:27.315Z,9.53
2018-12-10T04:03:56.669Z,10.80
2018-12-10T04:06:25.386Z,13.83
2018-12-10T04:08:54.270Z,11.40
2018-12-10T04:11:23.025Z,10.07
2018-12-10T04:13:52.102Z,11.90
2018-12-10T04:16:20.927Z,9.67
2018-12-10T04:18:49.752Z,10.83
2018-12-10T04:21:18.780Z,10.70
2018-12-10T04:23:47.547Z,10.23
2018-12-10T04:26:16.495Z,10.77
2018-12-10T04:28:45.233Z,11.17
2018-12-10T04:31:13.956Z,14.00
2018-12-10T04:33:42.673Z,12.13
2018-12-10T04:36:11.740Z,14.60
2018-12-10T04:38:40.619Z,10.90
2018-12-10T04:41:09.179Z,11.90
2018-12-10T04:43:38.194Z,12.03
2018-12-10T04:46:06.971Z,13.63
2018-12-10T04:48:35.861Z,14.13
2018-12-10T04:51:04.746Z,12.30
2018-12-10T04:53:33.546Z,16.30
2018-12-10T04:56:02.277Z,13.03
2018-12-10T04:58:31.224Z,15.30
2018-12-10T05:00:59.965Z,16.10
2018-12-10T05:03:28.925Z,14.37
2018-12-10T05:05:58.020Z,19.93
2018-12-10T05:08:26.706Z,16.63
2018-12-10T05:10:55.480Z,13.70
2018-12-10T05:13:24.096Z,13.47
2018-12-10T05:15:52.831Z,27.73
2018-12-10T05:18:21.826Z,16.07
2018-12-10T05:20:50.699Z,19.87
2018-12-10T05:23:19.536Z,20.60
2018-12-10T05:25:48.208Z,20.67
2018-12-10T05:28:16.973Z,21.33
2018-12-10T05:30:45.762Z,20.57
2018-12-10T05:33:14.636Z,19.17
2018-12-10T05:35:43.531Z,21.23
2018-12-10T05:38:12.619Z,18.10
2018-12-10T05:40:42.120Z,20.50
2018-12-10T05:43:10.724Z,22.93
2018-12-10T05:45:39.684Z,20.33
2018-12-10T05:48:08.393Z,21.67
2018-12-10T05:50:37.342Z,19.83
2018-12-10T05:53:05.567Z,21.20
2018-12-10T05:55:34.480Z,24.73
2018-12-10T05:58:03.213Z,17.80
2018-12-10T06:00:32.022Z,22.10
2018-12-10T06:03:01.006Z,16.40
2018-12-10T06:05:29.673Z,19.40
2018-12-10T06:07:58.282Z,19.40
2018-12-10T06:10:27.071Z,19.43
2018-12-10T06:12:55.829Z,24.63
2018-12-10T06:15:24.551Z,17.83
2018-12-10T06:17:53.406Z,18.87
2018-12-10T06:20:22.359Z,22.03
2018-12-10T06:22:51.130Z,19.97
2018-12-10T06:25:19.777Z,20.30
2018-12-10T06:27:48.822Z,26.77
2018-12-10T06:30:17.607Z,27.40
2018-12-10T06:32:46.687Z,19.93
2018-12-10T06:35:15.795Z,21.93
2018-12-10T06:37:44.735Z,22.20
2018-12-10T06:40:13.834Z,19.37
2018-12-10T06:42:43.283Z,19.17
2018-12-10T06:45:12.051Z,21.30
2018-12-10T06:47:40.758Z,19.43
2018-12-10T06:50:09.979Z,18.80
2018-12-10T06:52:39.077Z,23.73
2018-12-10T06:55:08.178Z,23.57
2018-12-10T06:57:37.215Z,24.37
2018-12-10T07:00:07.668Z,22.57
2018-12-10T07:02:36.674Z,25.10
2018-12-10T07:05:06.055Z,24.17
2018-12-10T07:07:35.090Z,21.17
2018-12-10T07:10:04.362Z,22.80
2018-12-10T07:12:33.755Z,26.33
2018-12-10T07:15:02.793Z,18.20
2018-12-10T07:17:31.851Z,20.07
2018-12-10T07:20:00.509Z,21.57
2018-12-10T07:22:29.427Z,18.40
2018-12-10T07:24:58.188Z,23.70
2018-12-10T07:27:26.873Z,19.80
2018-12-10T07:29:55.835Z,17.33
2018-12-10T07:32:24.838Z,19.73
2018-12-10T07:34:53.915Z,19.67
2018-12-10T07:37:22.572Z,19.00
2018-12-10T07:39:51.618Z,15.33
2018-12-10T07:42:20.588Z,17.13
2018-12-10T07:44:49.297Z,17.77
2018-12-10T07:47:18.443Z,16.20
2018-12-10T07:49:47.235Z,19.60
2018-12-10T07:52:16.100Z,18.30
2018-12-10T07:54:45.163Z,14.40
2018-12-10T07:57:13.991Z,16.23
2018-12-10T07:59:42.780Z,14.17
2018-12-10T08:02:11.705Z,16.93
2018-12-10T08:04:40.778Z,14.70
2018-12-10T08:07:09.697Z,16.57
2018-12-10T08:09:38.376Z,16.57
2018-12-10T08:12:07.234Z,14.90
2018-12-10T08:14:36.496Z,13.60
2018-12-10T08:17:05.473Z,12.83
2018-12-10T08:19:34.295Z,12.87
2018-12-10T08:22:03.087Z,11.57
2018-12-10T08:24:32.269Z,12.93
2018-12-10T08:27:01.211Z,13.57
2018-12-10T08:29:30.174Z,13.67
2018-12-10T08:31:59.269Z,19.07
2018-12-10T08:34:28.281Z,12.17
2018-12-10T08:36:57.062Z,15.67
2018-12-10T08:39:26.006Z,10.77
2018-12-10T08:41:54.953Z,11.87
2018-12-10T08:44:23.901Z,11.73
2018-12-10T08:46:52.980Z,13.00
2018-12-10T08:49:22.011Z,10.47
2018-12-10T08:51:50.908Z,12.40
2018-12-10T08:54:19.750Z,12.47
2018-12-10T08:56:48.553Z,12.23
2018-12-10T08:59:17.648Z,13.23
2018-12-10T09:01:47.087Z,11.30
2018-12-10T09:04:16.235Z,12.93
2018-12-10T09:06:45.075Z,9.50
2018-12-10T09:09:14.080Z,10.43
2018-12-10T09:11:42.995Z,9.40
2018-12-10T09:14:11.890Z,11.23
2018-12-10T09:16:40.753Z,13.23
2018-12-10T09:19:09.774Z,12.57
2018-12-10T09:21:38.435Z,12.83
2018-12-10T09:24:07.602Z,10.00
2018-12-10T09:26:36.523Z,12.00
2018-12-10T09:29:05.205Z,11.63
2018-12-10T09:31:34.012Z,12.50
2018-12-10T09:34:02.910Z,14.53
2018-12-10T09:36:31.805Z,8.13
2018-12-10T09:39:00.981Z,8.33
2018-12-10T09:41:29.879Z,9.17
2018-12-10T09:43:59.034Z,10.17
2018-12-10T09:46:27.858Z,10.60
2018-12-10T09:48:56.816Z,6.83
2018-12-10T09:51:25.755Z,8.00
2018-12-10T09:53:54.436Z,10.93
2018-12-10T09:56:23.330Z,9.80
2018-12-10T09:58:52.286Z,9.53
2018-12-10T10:01:21.324Z,10.43
2018-12-10T10:03:50.014Z,12.27
2018-12-10T10:06:18.835Z,11.47
2018-12-10T10:08:49.644Z,11.23
2018-12-10T10:11:19.001Z,11.57
2018-12-10T10:13:48.059Z,8.50
2018-12-10T10:16:17.200Z,14.07
2018-12-10T10:18:45.973Z,8.90
2018-12-10T10:21:14.982Z,10.40
2018-12-10T10:23:43.604Z,8.27
2018-12-10T10:26:12.753Z,10.27
2018-12-10T10:28:41.470Z,7.77
2018-12-10T10:31:10.364Z,9.23
2018-12-10T10:33:39.608Z,8.17
2018-12-10T10:36:08.560Z,8.73
2018-12-10T10:38:37.256Z,8.67
2018-12-10T10:41:06.012Z,7.30
2018-12-10T10:43:34.684Z,6.03
2018-12-10T10:46:03.489Z,7.63
2018-12-10T10:48:32.070Z,5.93
2018-12-10T10:51:00.667Z,7.07
2018-12-10T10:53:29.529Z,7.80
2018-12-10T10:55:58.135Z,6.83
2018-12-10T10:58:26.767Z,8.27
2018-12-10T11:01:00.561Z,10.90
2018-12-10T11:03:34.680Z,6.17
2018-12-10T11:06:03.533Z,5.80
2018-12-10T11:08:32.114Z,7.37
2018-12-10T11:11:00.797Z,8.77
2018-12-10T11:13:29.536Z,4.87
2018-12-10T11:15:58.633Z,8.33
2018-12-10T11:18:27.326Z,5.90
2018-12-10T11:20:56.460Z,6.63
2018-12-10T11:23:26.304Z,7.20
2018-12-10T11:25:55.368Z,4.87
2018-12-10T11:28:24.258Z,7.20
2018-12-10T11:30:53.043Z,5.47
2018-12-10T11:33:22.400Z,7.13
2018-12-10T11:35:51.135Z,8.07
2018-12-10T11:38:20.307Z,6.87
2018-12-10T11:40:49.533Z,5.73
2018-12-10T11:43:18.280Z,6.13
2018-12-10T11:45:47.385Z,6.70
2018-12-10T11:48:16.076Z,6.93
2018-12-10T11:50:44.844Z,9.07
2018-12-10T11:53:13.758Z,7.33
2018-12-10T11:55:42.656Z,9.40
2018-12-10T11:58:11.640Z,7.87
2018-12-10T12:00:40.930Z,12.77
2018-12-10T12:03:09.816Z,7.60
2018-12-10T12:05:38.610Z,7.97
2018-12-10T12:08:07.775Z,8.63
2018-12-10T12:10:36.743Z,8.07
2018-12-10T12:13:05.777Z,9.10
2018-12-10T12:15:34.929Z,8.87
2018-12-10T12:18:04.017Z,8.13
2018-12-10T12:20:32.868Z,8.57
2018-12-10T12:23:01.724Z,9.10
2018-12-10T12:25:30.614Z,14.70
2018-12-10T12:27:59.479Z,8.17
2018-12-10T12:30:28.553Z,6.60
2018-12-10T12:32:57.565Z,6.87
2018-12-10T12:35:26.431Z,6.87
2018-12-10T12:37:55.079Z,6.27
2018-12-10T12:40:23.915Z,7.23
2018-12-10T12:42:52.802Z,7.13
2018-12-10T12:45:21.660Z,7.43
2018-12-10T12:47:50.494Z,6.23
2018-12-10T12:50:19.758Z,8.23
2018-12-10T12:52:48.725Z,9.90
2018-12-10T12:55:17.783Z,6.50
2018-12-10T12:57:46.508Z,8.60
2018-12-10T13:00:15.724Z,7.27
2018-12-10T13:02:44.429Z,7.07
2018-12-10T13:05:13.480Z,8.37
2018-12-10T13:07:42.512Z,6.70
2018-12-10T13:10:12.011Z,5.83
2018-12-10T13:12:40.846Z,6.73
2018-12-10T13:15:09.807Z,7.23
2018-12-10T13:17:38.462Z,4.30
2018-12-10T13:20:14.024Z,3.57
2018-12-10T13:22:47.283Z,2.37
2018-12-10T13:25:13.829Z,2.77
2018-12-10T13:27:42.668Z,2.87
2018-12-10T13:30:11.567Z,1.83
2018-12-10T13:32:40.247Z,2.10
2018-12-10T13:35:09.636Z,2.10
2018-12-10T13:37:38.706Z,1.60
2018-12-10T13:40:07.878Z,2.80
2018-12-10T13:42:37.185Z,1.73
2018-12-10T13:45:06.422Z,1.90
2018-12-10T13:47:35.378Z,2.40
2018-12-10T13:50:04.639Z,5.63
2018-12-10T13:52:33.495Z,1.70
2018-12-10T13:55:02.862Z,1.53
2018-12-10T13:57:31.818Z,2.30
2018-12-10T14:00:01.250Z,2.40
2018-12-10T14:02:30.552Z,2.40
2018-12-10T14:05:05.105Z,2.17
2018-12-10T14:07:34.275Z,2.30
2018-12-10T14:10:02.957Z,3.00
2018-12-10T14:12:31.999Z,2.27
2018-12-10T14:15:00.789Z,2.83
2018-12-10T14:17:29.889Z,2.67
2018-12-10T14:19:58.754Z,2.60
2018-12-10T14:22:33.950Z,2.50
2018-12-10T14:25:03.478Z,2.60
2018-12-10T14:27:32.354Z,2.50
2018-12-10T14:30:01.364Z,3.73
2018-12-10T14:32:30.349Z,2.47
2018-12-10T14:34:59.553Z,2.87
2018-12-10T14:37:28.299Z,3.83
2018-12-10T14:39:56.987Z,3.23
2018-12-10T14:42:26.097Z,2.27
2018-12-10T14:44:55.071Z,2.27
2018-12-10T14:47:24.053Z,1.80
2018-12-10T14:52:35.844Z,4.00
2018-12-10T14:55:04.886Z,2.93
2018-12-10T14:57:33.979Z,3.10
2018-12-10T15:00:03.016Z,2.50
2018-12-10T15:02:32.117Z,3.07
2018-12-10T15:05:00.939Z,3.40
2018-12-10T15:07:30.170Z,3.60
2018-12-10T15:09:59.053Z,3.33
2018-12-10T15:12:28.071Z,5.17
2018-12-10T15:14:57.088Z,3.50
2018-12-10T15:17:25.995Z,3.87
2018-12-10T15:19:54.731Z,4.77
2018-12-10T15:22:23.621Z,5.87
2018-12-10T15:24:52.457Z,4.10
2018-12-10T15:27:21.308Z,4.90
2018-12-10T15:29:50.019Z,4.77
2018-12-10T15:32:18.956Z,4.90
2018-12-10T15:34:47.946Z,6.37
2018-12-10T15:37:16.864Z,7.53
2018-12-10T15:39:45.619Z,9.87
2018-12-10T15:42:14.348Z,9.27
2018-12-10T15:44:43.235Z,8.07
2018-12-10T15:47:11.995Z,9.87
2018-12-10T15:49:40.879Z,9.10
2018-12-10T15:52:10.120Z,10.63
2018-12-10T15:54:38.745Z,9.90
2018-12-10T15:57:07.501Z,9.07
2018-12-10T15:59:36.315Z,11.67
2018-12-10T16:02:05.072Z,9.30
2018-12-10T16:04:35.659Z,11.53
2018-12-10T16:07:04.486Z,10.70
2018-12-10T16:09:33.411Z,9.43
2018-12-10T16:12:02.298Z,10.57
2018-12-10T16:14:31.355Z,13.60
2018-12-10T16:17:00.178Z,10.27
2018-12-10T16:19:29.002Z,9.63
2018-12-10T16:21:57.775Z,10.40
2018-12-10T16:24:26.593Z,8.60
2018-12-10T16:26:55.397Z,11.93
2018-12-10T16:29:24.447Z,11.03
2018-12-10T16:31:53.357Z,11.60
2018-12-10T16:34:22.386Z,8.87
2018-12-10T16:36:51.482Z,8.63
2018-12-10T16:39:20.219Z,7.73
2018-12-10T16:41:49.101Z,7.30
2018-12-10T16:44:18.123Z,8.37
2018-12-10T16:46:46.894Z,8.07
2018-12-10T16:49:15.731Z,6.30
2018-12-10T16:51:44.865Z,6.97
2018-12-10T16:54:14.201Z,7.80
2018-12-10T16:56:43.259Z,8.70
2018-12-10T16:59:12.246Z,7.30
2018-12-10T17:01:41.247Z,8.57
2018-12-10T17:04:10.361Z,8.30
2018-12-10T17:06:39.482Z,7.07
2018-12-10T17:09:11.730Z,8.33
2018-12-10T17:11:40.942Z,7.33
2018-12-10T17:14:09.913Z,8.00
2018-12-10T17:16:38.859Z,6.83
2018-12-10T17:19:38.443Z,7.87
2018-12-10T17:22:07.390Z,7.20
2018-12-10T17:24:36.169Z,6.47
2018-12-10T17:27:05.060Z,6.17
2018-12-10T17:29:33.865Z,6.80
2018-12-10T17:32:03.922Z,5.03
2018-12-10T17:34:32.611Z,6.53
2018-12-10T17:39:02.014Z,6.43
2018-12-10T17:41:30.848Z,5.27
2018-12-10T17:44:00.355Z,5.30
2018-12-10T17:46:29.698Z,6.47
2018-12-10T17:48:58.584Z,5.60
2018-12-10T17:51:27.306Z,6.97
2018-12-10T17:53:57.002Z,5.50
2018-12-10T17:56:26.221Z,4.23
2018-12-10T17:58:55.008Z,5.43
2018-12-10T18:01:23.864Z,3.30
2018-12-10T18:03:52.986Z,3.50
2018-12-10T18:06:21.681Z,2.73
2018-12-10T18:08:51.140Z,1.90
2018-12-10T18:11:20.084Z,1.87
2018-12-10T18:13:49.014Z,1.80
2018-12-10T18:16:17.989Z,1.60
2018-12-10T18:18:47.166Z,1.73
2018-12-10T18:21:16.060Z,1.40
2018-12-10T18:23:45.132Z,1.20
2018-12-10T18:26:13.946Z,1.40
2018-12-10T18:28:42.734Z,2.00
2018-12-10T18:31:11.945Z,1.50
2018-12-10T18:33:41.334Z,1.47
2018-12-10T18:36:10.272Z,1.70
2018-12-10T18:38:39.054Z,1.40
2018-12-10T18:41:08.032Z,1.17
2018-12-10T18:43:36.892Z,1.63
2018-12-10T18:46:05.981Z,1.10
2018-12-10T18:48:34.992Z,1.27
2018-12-10T18:51:04.057Z,1.77
2018-12-10T18:53:33.286Z,2.57
2018-12-10T18:56:02.253Z,1.40
2018-12-10T18:58:31.075Z,1.47
2018-12-10T19:01:00.055Z,1.47
2018-12-10T19:03:28.881Z,1.50
2018-12-10T19:05:57.671Z,1.93
2018-12-10T19:08:27.237Z,1.40
2018-12-10T19:10:56.311Z,1.90
2018-12-10T19:13:25.432Z,1.40
2018-12-10T19:15:54.403Z,2.53
2018-12-10T19:18:23.705Z,1.70
2018-12-10T19:20:52.407Z,1.53
2018-12-10T19:23:21.218Z,1.40
2018-12-10T19:25:50.619Z,1.93
2018-12-10T19:28:19.715Z,2.07
2018-12-10T19:30:49.071Z,2.57
2018-12-10T19:33:18.081Z,2.13
2018-12-10T19:35:46.869Z,1.90
2018-12-10T19:38:15.771Z,1.90
2018-12-10T19:40:44.993Z,2.03
2018-12-10T19:43:14.066Z,1.67
2018-12-10T19:45:42.970Z,1.97
2018-12-10T19:48:11.736Z,1.60
2018-12-10T19:50:40.460Z,1.53
2018-12-10T19:53:09.232Z,2.10
2018-12-10T19:55:38.349Z,2.53
2018-12-10T19:58:07.656Z,1.63
2018-12-10T20:00:37.179Z,2.10
2018-12-10T20:03:06.373Z,2.00
2018-12-10T20:05:40.496Z,1.83
2018-12-10T20:08:09.487Z,2.37
2018-12-10T20:10:38.258Z,2.03
2018-12-10T20:13:07.066Z,2.30
2018-12-10T20:15:36.311Z,2.23
2018-12-10T20:18:05.358Z,2.47
2018-12-10T20:20:34.310Z,2.80
2018-12-10T20:23:03.478Z,2.53
2018-12-10T20:25:32.387Z,2.00
2018-12-10T20:28:01.116Z,2.47
2018-12-10T20:30:29.949Z,2.77
2018-12-10T20:32:58.790Z,2.13
2018-12-10T20:35:27.983Z,2.10
2018-12-10T20:37:57.335Z,3.20
2018-12-10T20:40:26.233Z,2.20
2018-12-10T20:42:55.163Z,2.40
2018-12-10T20:45:24.068Z,2.47
2018-12-10T20:47:53.135Z,2.80
2018-12-10T20:50:22.079Z,2.83
2018-12-10T20:52:51.027Z,2.50
2018-12-10T20:55:20.141Z,3.10
2018-12-10T20:57:48.844Z,3.23
2018-12-10T21:00:17.688Z,3.17
2018-12-10T21:02:46.345Z,3.50
2018-12-10T21:05:15.224Z,2.90
2018-12-10T21:07:44.233Z,3.13
2018-12-10T21:10:12.948Z,2.73
2018-12-10T21:12:42.047Z,3.13
2018-12-10T21:15:11.493Z,3.20
2018-12-10T21:17:40.408Z,3.13
2018-12-10T21:20:10.044Z,2.77
2018-12-10T21:22:39.091Z,3.53
2018-12-10T21:25:08.030Z,3.57
2018-12-10T21:27:36.801Z,3.50
2018-12-10T21:30:06.662Z,3.70
2018-12-10T21:32:35.547Z,3.97
2018-12-10T21:35:04.704Z,4.03
2018-12-10T21:37:33.724Z,4.23
2018-12-10T21:40:02.587Z,4.60
2018-12-10T21:42:31.508Z,3.73
2018-12-10T21:45:00.606Z,3.23
2018-12-10T21:47:29.618Z,4.87
2018-12-10T21:49:58.363Z,4.33
2018-12-10T21:52:27.694Z,3.87
2018-12-10T21:54:57.025Z,4.57
2018-12-10T21:57:25.938Z,3.67
2018-12-10T21:59:54.802Z,3.00
2018-12-10T22:02:23.540Z,3.97
2018-12-10T22:04:52.473Z,3.50
2018-12-10T22:07:21.094Z,4.23
2018-12-10T22:09:49.926Z,3.67
2018-12-10T22:12:18.783Z,3.77
2018-12-10T22:14:47.840Z,3.27
2018-12-10T22:17:16.695Z,3.57
2018-12-10T22:19:45.308Z,4.40
2018-12-10T22:22:14.011Z,2.70
2018-12-10T22:24:42.633Z,3.60
2018-12-10T22:27:11.311Z,3.73
2018-12-10T22:29:39.934Z,3.30
2018-12-10T22:32:08.686Z,3.63
2018-12-10T22:34:37.444Z,3.47
2018-12-10T22:37:06.311Z,3.63
2018-12-10T22:39:35.408Z,3.70
2018-12-10T22:42:04.184Z,3.50
2018-12-10T22:44:33.219Z,3.90
2018-12-10T22:47:01.961Z,2.77
2018-12-10T22:49:30.887Z,3.90
2018-12-10T22:51:59.876Z,3.53
2018-12-10T22:54:28.862Z,3.93
2018-12-10T22:56:57.485Z,3.23
2018-12-10T22:59:26.427Z,3.53
2018-12-10T23:01:55.252Z,3.47
2018-12-10T23:04:23.978Z,2.87
2018-12-10T23:06:53.351Z,3.63
2018-12-10T23:09:53.135Z,3.67
2018-12-10T23:12:21.923Z,2.93
2018-12-10T23:14:50.754Z,3.80
2018-12-10T23:17:19.516Z,3.53
2018-12-10T23:19:48.609Z,3.90
2018-12-10T23:22:17.469Z,2.77
2018-12-10T23:24:46.385Z,3.03
2018-12-10T23:27:15.357Z,2.90
2018-12-10T23:29:44.054Z,3.63
2018-12-10T23:32:12.974Z,3.53
2018-12-10T23:34:41.847Z,2.90
2018-12-10T23:37:10.866Z,3.53
2018-12-10T23:39:39.791Z,3.80
2018-12-10T23:42:08.846Z,3.10
2018-12-10T23:44:42.920Z,3.17
2018-12-10T23:47:11.631Z,3.20
2018-12-10T23:49:40.270Z,3.57
2018-12-10T23:52:08.989Z,2.77
2018-12-10T23:54:37.592Z,3.47
2018-12-10T23:57:06.293Z,3.10
2018-12-10T23:59:35.142Z,3.43
